sensor_id;sensor_type;location;lat;lon;timestamp;P1;durP1;ratioP1;P2;durP2;ratioP2
14030;SDS011;7090;49.436;8.490;2023-08-06T00:01:48;6.05;;;3.67;;
14030;SDS011;7090;49.436;8.490;2023-08-06T00:04:13;4.57;;;4.28;;
14030;SDS011;7090;49.436;8.490;2023-08-06T00:06:39;4.05;;;3.85;;
14030;SDS011;7090;49.436;8.490;2023-08-06T00:09:04;3.22;;;3.03;;
14030;SDS011;7090;49.436;8.490;2023-08-06T00:11:30;3.53;;;3.22;;
14030;SDS011;7090;49.436;8.490;2023-08-06T00:13:56;4.45;;;4.00;;
14030;SDS011;7090;49.436;8.490;2023-08-06T00:16:21;4.85;;;4.47;;
14030;SDS011;7090;49.436;8.490;2023-08-06T00:18:47;4.10;;;3.80;;
14030;SDS011;7090;49.436;8.490;2023-08-06T00:21:12;4.10;;;3.78;;
14030;SDS011;7090;49.436;8.490;2023-08-06T00:23:38;4.90;;;4.60;;
14030;SDS011;7090;49.436;8.490;2023-08-06T00:26:04;3.95;;;3.67;;
14030;SDS011;7090;49.436;8.490;2023-08-06T00:28:30;4.60;;;4.28;;
14030;SDS011;7090;49.436;8.490;2023-08-06T00:30:56;4.80;;;4.50;;
14030;SDS011;7090;49.436;8.490;2023-08-06T00:33:22;4.57;;;4.28;;
14030;SDS011;7090;49.436;8.490;2023-08-06T00:35:48;4.70;;;4.40;;
14030;SDS011;7090;49.436;8.490;2023-08-06T00:38:14;4.10;;;3.90;;
14030;SDS011;7090;49.436;8.490;2023-08-06T00:40:39;4.70;;;4.40;;
14030;SDS011;7090;49.436;8.490;2023-08-06T00:43:05;4.63;;;4.38;;
14030;SDS011;7090;49.436;8.490;2023-08-06T00:45:31;5.45;;;5.13;;
14030;SDS011;7090;49.436;8.490;2023-08-06T00:48:01;4.60;;;4.40;;
14030;SDS011;7090;49.436;8.490;2023-08-06T00:50:28;5.93;;;5.43;;
14030;SDS011;7090;49.436;8.490;2023-08-06T00:52:54;5.22;;;4.93;;
14030;SDS011;7090;49.436;8.490;2023-08-06T00:55:20;5.93;;;5.43;;
14030;SDS011;7090;49.436;8.490;2023-08-06T00:57:46;5.00;;;4.80;;
14030;SDS011;7090;49.436;8.490;2023-08-06T01:00:12;5.28;;;4.93;;
14030;SDS011;7090;49.436;8.490;2023-08-06T01:02:37;5.00;;;4.70;;
14030;SDS011;7090;49.436;8.490;2023-08-06T01:05:03;6.53;;;6.03;;
14030;SDS011;7090;49.436;8.490;2023-08-06T01:07:36;5.60;;;5.30;;
14030;SDS011;7090;49.436;8.490;2023-08-06T01:13:27;5.63;;;5.32;;
14030;SDS011;7090;49.436;8.490;2023-08-06T01:15:56;6.25;;;5.95;;
14030;SDS011;7090;49.436;8.490;2023-08-06T01:18:26;6.38;;;5.97;;
14030;SDS011;7090;49.436;8.490;2023-08-06T01:20:52;6.72;;;6.07;;
14030;SDS011;7090;49.436;8.490;2023-08-06T01:23:18;6.07;;;5.72;;
14030;SDS011;7090;49.436;8.490;2023-08-06T01:31:39;5.50;;;5.20;;
14030;SDS011;7090;49.436;8.490;2023-08-06T01:34:09;5.10;;;4.90;;
14030;SDS011;7090;49.436;8.490;2023-08-06T01:36:42;5.72;;;5.43;;
14030;SDS011;7090;49.436;8.490;2023-08-06T01:39:08;5.47;;;5.28;;
14030;SDS011;7090;49.436;8.490;2023-08-06T01:41:33;5.60;;;5.40;;
14030;SDS011;7090;49.436;8.490;2023-08-06T01:43:59;5.47;;;5.28;;
14030;SDS011;7090;49.436;8.490;2023-08-06T01:46:25;6.03;;;5.72;;
14030;SDS011;7090;49.436;8.490;2023-08-06T01:48:50;5.72;;;5.53;;
14030;SDS011;7090;49.436;8.490;2023-08-06T01:51:16;5.43;;;5.22;;
14030;SDS011;7090;49.436;8.490;2023-08-06T01:53:41;7.78;;;6.40;;
14030;SDS011;7090;49.436;8.490;2023-08-06T01:56:07;5.78;;;5.57;;
14030;SDS011;7090;49.436;8.490;2023-08-06T01:58:32;6.65;;;6.35;;
14030;SDS011;7090;49.436;8.490;2023-08-06T02:00:58;6.70;;;6.30;;
14030;SDS011;7090;49.436;8.490;2023-08-06T02:03:23;5.93;;;5.72;;
14030;SDS011;7090;49.436;8.490;2023-08-06T02:05:49;6.70;;;6.40;;
14030;SDS011;7090;49.436;8.490;2023-08-06T02:08:15;7.55;;;7.00;;
14030;SDS011;7090;49.436;8.490;2023-08-06T02:10:40;6.13;;;5.93;;
14030;SDS011;7090;49.436;8.490;2023-08-06T02:13:06;6.90;;;6.53;;
14030;SDS011;7090;49.436;8.490;2023-08-06T02:15:32;6.22;;;6.03;;
14030;SDS011;7090;49.436;8.490;2023-08-06T02:17:57;6.43;;;6.10;;
14030;SDS011;7090;49.436;8.490;2023-08-06T02:20:23;6.05;;;5.75;;
14030;SDS011;7090;49.436;8.490;2023-08-06T02:22:48;6.22;;;5.93;;
14030;SDS011;7090;49.436;8.490;2023-08-06T02:25:14;7.03;;;6.57;;
14030;SDS011;7090;49.436;8.490;2023-08-06T02:27:40;6.45;;;6.15;;
14030;SDS011;7090;49.436;8.490;2023-08-06T02:30:05;7.47;;;6.97;;
14030;SDS011;7090;49.436;8.490;2023-08-06T02:32:31;6.40;;;6.00;;
14030;SDS011;7090;49.436;8.490;2023-08-06T02:35:00;6.47;;;6.10;;
14030;SDS011;7090;49.436;8.490;2023-08-06T02:37:26;5.53;;;5.25;;
14030;SDS011;7090;49.436;8.490;2023-08-06T02:39:51;6.50;;;6.03;;
14030;SDS011;7090;49.436;8.490;2023-08-06T02:42:17;5.82;;;5.53;;
14030;SDS011;7090;49.436;8.490;2023-08-06T02:44:43;5.47;;;5.13;;
14030;SDS011;7090;49.436;8.490;2023-08-06T02:47:08;5.15;;;4.93;;
14030;SDS011;7090;49.436;8.490;2023-08-06T02:49:34;5.40;;;5.20;;
14030;SDS011;7090;49.436;8.490;2023-08-06T02:51:59;5.13;;;4.93;;
14030;SDS011;7090;49.436;8.490;2023-08-06T02:54:25;6.53;;;5.95;;
14030;SDS011;7090;49.436;8.490;2023-08-06T02:56:50;6.60;;;5.97;;
14030;SDS011;7090;49.436;8.490;2023-08-06T02:59:16;5.40;;;5.10;;
14030;SDS011;7090;49.436;8.490;2023-08-06T03:01:42;5.43;;;5.18;;
14030;SDS011;7090;49.436;8.490;2023-08-06T03:04:07;5.40;;;5.10;;
14030;SDS011;7090;49.436;8.490;2023-08-06T03:06:33;5.60;;;5.20;;
14030;SDS011;7090;49.436;8.490;2023-08-06T03:08:58;4.70;;;4.50;;
14030;SDS011;7090;49.436;8.490;2023-08-06T03:11:24;4.90;;;4.70;;
14030;SDS011;7090;49.436;8.490;2023-08-06T03:13:49;5.47;;;5.18;;
14030;SDS011;7090;49.436;8.490;2023-08-06T03:16:15;4.40;;;4.30;;
14030;SDS011;7090;49.436;8.490;2023-08-06T03:18:40;5.20;;;4.90;;
14030;SDS011;7090;49.436;8.490;2023-08-06T03:21:06;4.35;;;4.25;;
14030;SDS011;7090;49.436;8.490;2023-08-06T03:23:32;6.03;;;5.43;;
14030;SDS011;7090;49.436;8.490;2023-08-06T03:26:01;5.35;;;4.95;;
14030;SDS011;7090;49.436;8.490;2023-08-06T03:28:27;4.57;;;4.47;;
14030;SDS011;7090;49.436;8.490;2023-08-06T03:31:02;5.57;;;5.18;;
14030;SDS011;7090;49.436;8.490;2023-08-06T03:33:28;5.70;;;5.30;;
14030;SDS011;7090;49.436;8.490;2023-08-06T03:35:54;6.47;;;5.97;;
14030;SDS011;7090;49.436;8.490;2023-08-06T03:38:20;5.50;;;5.20;;
14030;SDS011;7090;49.436;8.490;2023-08-06T03:40:46;5.68;;;5.20;;
14030;SDS011;7090;49.436;8.490;2023-08-06T03:43:11;5.43;;;5.20;;
14030;SDS011;7090;49.436;8.490;2023-08-06T03:45:37;5.50;;;5.15;;
14030;SDS011;7090;49.436;8.490;2023-08-06T03:48:03;5.38;;;5.07;;
14030;SDS011;7090;49.436;8.490;2023-08-06T03:50:28;5.28;;;4.97;;
14030;SDS011;7090;49.436;8.490;2023-08-06T03:52:54;5.85;;;5.55;;
14030;SDS011;7090;49.436;8.490;2023-08-06T03:55:20;5.55;;;5.25;;
14030;SDS011;7090;49.436;8.490;2023-08-06T03:57:45;5.30;;;5.00;;
14030;SDS011;7090;49.436;8.490;2023-08-06T04:00:11;4.80;;;4.60;;
14030;SDS011;7090;49.436;8.490;2023-08-06T04:02:37;5.82;;;5.50;;
14030;SDS011;7090;49.436;8.490;2023-08-06T04:05:03;5.57;;;5.22;;
14030;SDS011;7090;49.436;8.490;2023-08-06T04:07:29;6.15;;;5.75;;
14030;SDS011;7090;49.436;8.490;2023-08-06T04:09:56;5.47;;;5.18;;
14030;SDS011;7090;49.436;8.490;2023-08-06T04:12:23;5.53;;;5.22;;
14030;SDS011;7090;49.436;8.490;2023-08-06T04:14:52;5.68;;;5.20;;
14030;SDS011;7090;49.436;8.490;2023-08-06T04:17:19;5.57;;;4.82;;
14030;SDS011;7090;49.436;8.490;2023-08-06T04:19:54;5.53;;;5.15;;
14030;SDS011;7090;49.436;8.490;2023-08-06T04:22:23;4.93;;;4.22;;
14030;SDS011;7090;49.436;8.490;2023-08-06T04:24:49;4.07;;;3.97;;
14030;SDS011;7090;49.436;8.490;2023-08-06T04:27:15;4.07;;;3.88;;
14030;SDS011;7090;49.436;8.490;2023-08-06T04:29:41;4.55;;;4.25;;
14030;SDS011;7090;49.436;8.490;2023-08-06T04:32:08;4.18;;;3.97;;
14030;SDS011;7090;49.436;8.490;2023-08-06T04:34:35;7.40;;;4.03;;
14030;SDS011;7090;49.436;8.490;2023-08-06T04:37:01;4.50;;;4.28;;
14030;SDS011;7090;49.436;8.490;2023-08-06T04:39:28;5.13;;;4.82;;
14030;SDS011;7090;49.436;8.490;2023-08-06T04:41:55;4.65;;;4.25;;
14030;SDS011;7090;49.436;8.490;2023-08-06T04:44:22;5.05;;;4.43;;
14030;SDS011;7090;49.436;8.490;2023-08-06T04:46:47;4.15;;;4.05;;
14030;SDS011;7090;49.436;8.490;2023-08-06T04:49:13;4.90;;;4.35;;
14030;SDS011;7090;49.436;8.490;2023-08-06T04:51:38;4.97;;;4.78;;
14030;SDS011;7090;49.436;8.490;2023-08-06T04:54:04;4.75;;;4.55;;
14030;SDS011;7090;49.436;8.490;2023-08-06T04:56:29;4.55;;;4.35;;
14030;SDS011;7090;49.436;8.490;2023-08-06T04:58:55;5.40;;;4.97;;
14030;SDS011;7090;49.436;8.490;2023-08-06T05:01:21;4.10;;;4.00;;
14030;SDS011;7090;49.436;8.490;2023-08-06T05:03:47;4.20;;;4.00;;
14030;SDS011;7090;49.436;8.490;2023-08-06T05:06:12;4.30;;;4.10;;
14030;SDS011;7090;49.436;8.490;2023-08-06T05:08:38;4.75;;;4.45;;
14030;SDS011;7090;49.436;8.490;2023-08-06T05:11:03;4.18;;;3.97;;
14030;SDS011;7090;49.436;8.490;2023-08-06T05:13:29;4.65;;;4.25;;
14030;SDS011;7090;49.436;8.490;2023-08-06T05:15:54;4.05;;;3.85;;
14030;SDS011;7090;49.436;8.490;2023-08-06T05:18:21;5.30;;;4.50;;
14030;SDS011;7090;49.436;8.490;2023-08-06T05:20:47;4.47;;;4.07;;
14030;SDS011;7090;49.436;8.490;2023-08-06T05:23:12;4.55;;;4.25;;
14030;SDS011;7090;49.436;8.490;2023-08-06T05:25:38;4.10;;;3.90;;
14030;SDS011;7090;49.436;8.490;2023-08-06T05:28:04;3.70;;;3.50;;
14030;SDS011;7090;49.436;8.490;2023-08-06T05:30:29;4.03;;;3.83;;
14030;SDS011;7090;49.436;8.490;2023-08-06T05:32:55;3.55;;;3.33;;
14030;SDS011;7090;49.436;8.490;2023-08-06T05:35:21;3.83;;;3.60;;
14030;SDS011;7090;49.436;8.490;2023-08-06T05:37:48;5.45;;;3.40;;
14030;SDS011;7090;49.436;8.490;2023-08-06T05:40:14;3.50;;;3.25;;
14030;SDS011;7090;49.436;8.490;2023-08-06T05:42:40;3.25;;;3.13;;
14030;SDS011;7090;49.436;8.490;2023-08-06T05:45:06;3.20;;;3.00;;
14030;SDS011;7090;49.436;8.490;2023-08-06T05:47:32;2.97;;;2.88;;
14030;SDS011;7090;49.436;8.490;2023-08-06T05:49:58;6.10;;;3.17;;
14030;SDS011;7090;49.436;8.490;2023-08-06T05:52:24;4.10;;;3.75;;
14030;SDS011;7090;49.436;8.490;2023-08-06T05:54:49;3.30;;;3.20;;
14030;SDS011;7090;49.436;8.490;2023-08-06T05:57:15;3.92;;;3.22;;
14030;SDS011;7090;49.436;8.490;2023-08-06T05:59:41;2.70;;;2.60;;
14030;SDS011;7090;49.436;8.490;2023-08-06T06:02:07;3.83;;;3.08;;
14030;SDS011;7090;49.436;8.490;2023-08-06T06:04:33;3.17;;;2.97;;
14030;SDS011;7090;49.436;8.490;2023-08-06T06:06:59;6.32;;;3.00;;
14030;SDS011;7090;49.436;8.490;2023-08-06T06:09:24;2.92;;;2.72;;
14030;SDS011;7090;49.436;8.490;2023-08-06T06:11:50;5.13;;;2.90;;
14030;SDS011;7090;49.436;8.490;2023-08-06T06:14:16;2.50;;;2.40;;
14030;SDS011;7090;49.436;8.490;2023-08-06T06:16:42;2.60;;;2.42;;
14030;SDS011;7090;49.436;8.490;2023-08-06T06:19:08;2.78;;;2.58;;
14030;SDS011;7090;49.436;8.490;2023-08-06T06:21:33;2.72;;;2.53;;
14030;SDS011;7090;49.436;8.490;2023-08-06T06:23:59;2.65;;;2.45;;
14030;SDS011;7090;49.436;8.490;2023-08-06T06:26:24;4.22;;;2.42;;
14030;SDS011;7090;49.436;8.490;2023-08-06T06:28:50;2.80;;;2.50;;
14030;SDS011;7090;49.436;8.490;2023-08-06T06:31:15;5.30;;;2.78;;
14030;SDS011;7090;49.436;8.490;2023-08-06T06:33:41;3.17;;;2.53;;
14030;SDS011;7090;49.436;8.490;2023-08-06T06:36:07;2.30;;;2.17;;
14030;SDS011;7090;49.436;8.490;2023-08-06T06:38:33;2.83;;;2.63;;
14030;SDS011;7090;49.436;8.490;2023-08-06T06:40:59;2.65;;;2.45;;
14030;SDS011;7090;49.436;8.490;2023-08-06T06:43:25;2.63;;;2.53;;
14030;SDS011;7090;49.436;8.490;2023-08-06T06:45:57;2.80;;;2.60;;
14030;SDS011;7090;49.436;8.490;2023-08-06T06:48:27;2.35;;;2.25;;
14030;SDS011;7090;49.436;8.490;2023-08-06T06:50:57;4.78;;;2.60;;
14030;SDS011;7090;49.436;8.490;2023-08-06T06:53:23;2.50;;;2.40;;
14030;SDS011;7090;49.436;8.490;2023-08-06T06:56:02;2.60;;;2.50;;
14030;SDS011;7090;49.436;8.490;2023-08-06T06:58:29;5.05;;;2.63;;
14030;SDS011;7090;49.436;8.490;2023-08-06T07:00:55;3.00;;;2.80;;
14030;SDS011;7090;49.436;8.490;2023-08-06T07:03:20;5.35;;;3.20;;
14030;SDS011;7090;49.436;8.490;2023-08-06T07:05:46;3.45;;;3.20;;
14030;SDS011;7090;49.436;8.490;2023-08-06T07:08:12;3.00;;;2.90;;
14030;SDS011;7090;49.436;8.490;2023-08-06T07:10:37;2.60;;;2.50;;
14030;SDS011;7090;49.436;8.490;2023-08-06T07:13:05;2.90;;;2.80;;
14030;SDS011;7090;49.436;8.490;2023-08-06T07:15:31;3.20;;;3.10;;
14030;SDS011;7090;49.436;8.490;2023-08-06T07:17:57;2.90;;;2.80;;
14030;SDS011;7090;49.436;8.490;2023-08-06T07:20:22;3.05;;;2.90;;
14030;SDS011;7090;49.436;8.490;2023-08-06T07:22:48;4.00;;;3.28;;
14030;SDS011;7090;49.436;8.490;2023-08-06T07:25:15;3.30;;;3.10;;
14030;SDS011;7090;49.436;8.490;2023-08-06T07:27:41;3.10;;;3.00;;
14030;SDS011;7090;49.436;8.490;2023-08-06T07:30:06;3.10;;;3.00;;
14030;SDS011;7090;49.436;8.490;2023-08-06T07:32:32;3.60;;;3.50;;
14030;SDS011;7090;49.436;8.490;2023-08-06T07:34:58;2.95;;;2.83;;
14030;SDS011;7090;49.436;8.490;2023-08-06T07:37:27;3.13;;;3.03;;
14030;SDS011;7090;49.436;8.490;2023-08-06T07:39:53;3.10;;;3.00;;
14030;SDS011;7090;49.436;8.490;2023-08-06T07:42:19;2.85;;;2.75;;
14030;SDS011;7090;49.436;8.490;2023-08-06T07:44:55;2.90;;;2.70;;
14030;SDS011;7090;49.436;8.490;2023-08-06T07:47:22;2.83;;;2.72;;
14030;SDS011;7090;49.436;8.490;2023-08-06T07:49:47;2.85;;;2.67;;
14030;SDS011;7090;49.436;8.490;2023-08-06T07:52:13;2.70;;;2.60;;
14030;SDS011;7090;49.436;8.490;2023-08-06T07:54:39;2.30;;;2.20;;
14030;SDS011;7090;49.436;8.490;2023-08-06T07:57:05;1.90;;;1.90;;
14030;SDS011;7090;49.436;8.490;2023-08-06T07:59:31;2.50;;;2.40;;
14030;SDS011;7090;49.436;8.490;2023-08-06T08:01:57;2.28;;;2.28;;
14030;SDS011;7090;49.436;8.490;2023-08-06T08:04:23;2.60;;;2.50;;
14030;SDS011;7090;49.436;8.490;2023-08-06T08:06:49;2.90;;;2.80;;
14030;SDS011;7090;49.436;8.490;2023-08-06T08:09:14;3.10;;;3.00;;
14030;SDS011;7090;49.436;8.490;2023-08-06T08:11:40;3.22;;;3.13;;
14030;SDS011;7090;49.436;8.490;2023-08-06T08:14:06;3.30;;;3.20;;
14030;SDS011;7090;49.436;8.490;2023-08-06T08:16:32;3.65;;;3.50;;
14030;SDS011;7090;49.436;8.490;2023-08-06T08:18:58;3.60;;;3.40;;
14030;SDS011;7090;49.436;8.490;2023-08-06T08:21:24;3.40;;;3.30;;
14030;SDS011;7090;49.436;8.490;2023-08-06T08:23:50;3.50;;;3.40;;
14030;SDS011;7090;49.436;8.490;2023-08-06T08:26:16;3.20;;;3.10;;
14030;SDS011;7090;49.436;8.490;2023-08-06T08:28:41;3.78;;;3.58;;
14030;SDS011;7090;49.436;8.490;2023-08-06T08:31:08;2.60;;;2.50;;
14030;SDS011;7090;49.436;8.490;2023-08-06T08:33:39;2.70;;;2.60;;
14030;SDS011;7090;49.436;8.490;2023-08-06T08:36:05;2.50;;;2.40;;
14030;SDS011;7090;49.436;8.490;2023-08-06T08:38:30;2.10;;;2.08;;
14030;SDS011;7090;49.436;8.490;2023-08-06T08:40:56;1.92;;;1.90;;
14030;SDS011;7090;49.436;8.490;2023-08-06T08:43:22;2.05;;;1.95;;
14030;SDS011;7090;49.436;8.490;2023-08-06T08:45:51;2.13;;;2.03;;
14030;SDS011;7090;49.436;8.490;2023-08-06T08:48:20;2.28;;;2.20;;
14030;SDS011;7090;49.436;8.490;2023-08-06T08:50:48;2.10;;;2.10;;
14030;SDS011;7090;49.436;8.490;2023-08-06T08:53:15;2.22;;;2.22;;
14030;SDS011;7090;49.436;8.490;2023-08-06T08:55:42;2.85;;;2.75;;
14030;SDS011;7090;49.436;8.490;2023-08-06T08:58:09;2.83;;;2.72;;
14030;SDS011;7090;49.436;8.490;2023-08-06T09:00:35;3.50;;;3.40;;
14030;SDS011;7090;49.436;8.490;2023-08-06T09:03:01;3.80;;;3.70;;
14030;SDS011;7090;49.436;8.490;2023-08-06T09:05:29;3.83;;;3.72;;
14030;SDS011;7090;49.436;8.490;2023-08-06T09:07:56;3.30;;;3.20;;
14030;SDS011;7090;49.436;8.490;2023-08-06T09:10:28;3.28;;;3.17;;
14030;SDS011;7090;49.436;8.490;2023-08-06T09:12:54;2.95;;;2.85;;
14030;SDS011;7090;49.436;8.490;2023-08-06T09:15:23;2.72;;;2.63;;
14030;SDS011;7090;49.436;8.490;2023-08-06T09:17:50;2.60;;;2.50;;
14030;SDS011;7090;49.436;8.490;2023-08-06T09:20:17;3.80;;;2.35;;
14030;SDS011;7090;49.436;8.490;2023-08-06T09:22:42;2.13;;;2.03;;
14030;SDS011;7090;49.436;8.490;2023-08-06T09:25:09;2.30;;;2.20;;
14030;SDS011;7090;49.436;8.490;2023-08-06T09:27:35;2.50;;;2.40;;
14030;SDS011;7090;49.436;8.490;2023-08-06T09:30:02;3.10;;;3.00;;
14030;SDS011;7090;49.436;8.490;2023-08-06T09:32:43;4.40;;;4.30;;
14030;SDS011;7090;49.436;8.490;2023-08-06T09:35:14;4.50;;;4.35;;
14030;SDS011;7090;49.436;8.490;2023-08-06T09:37:41;5.05;;;4.85;;
14030;SDS011;7090;49.436;8.490;2023-08-06T09:42:51;5.85;;;5.65;;
14030;SDS011;7090;49.436;8.490;2023-08-06T09:45:17;6.40;;;6.20;;
14030;SDS011;7090;49.436;8.490;2023-08-06T09:47:42;6.68;;;6.40;;
14030;SDS011;7090;49.436;8.490;2023-08-06T09:50:18;5.80;;;5.60;;
14030;SDS011;7090;49.436;8.490;2023-08-06T09:52:46;5.22;;;5.03;;
14030;SDS011;7090;49.436;8.490;2023-08-06T09:55:13;4.72;;;4.60;;
14030;SDS011;7090;49.436;8.490;2023-08-06T09:57:42;5.40;;;5.20;;
14030;SDS011;7090;49.436;8.490;2023-08-06T10:00:08;5.10;;;4.90;;
14030;SDS011;7090;49.436;8.490;2023-08-06T10:02:39;5.45;;;5.25;;
14030;SDS011;7090;49.436;8.490;2023-08-06T10:05:08;5.30;;;5.10;;
14030;SDS011;7090;49.436;8.490;2023-08-06T10:07:34;5.30;;;5.10;;
14030;SDS011;7090;49.436;8.490;2023-08-06T10:10:00;4.80;;;4.70;;
14030;SDS011;7090;49.436;8.490;2023-08-06T10:12:28;5.80;;;5.60;;
14030;SDS011;7090;49.436;8.490;2023-08-06T10:14:57;5.60;;;5.30;;
14030;SDS011;7090;49.436;8.490;2023-08-06T10:17:24;5.30;;;5.10;;
14030;SDS011;7090;49.436;8.490;2023-08-06T10:19:52;5.45;;;5.20;;
14030;SDS011;7090;49.436;8.490;2023-08-06T10:22:20;5.32;;;5.13;;
14030;SDS011;7090;49.436;8.490;2023-08-06T10:24:53;5.20;;;5.00;;
14030;SDS011;7090;49.436;8.490;2023-08-06T10:27:21;5.20;;;5.00;;
14030;SDS011;7090;49.436;8.490;2023-08-06T10:29:49;5.30;;;5.10;;
14030;SDS011;7090;49.436;8.490;2023-08-06T10:32:15;4.75;;;4.63;;
14030;SDS011;7090;49.436;8.490;2023-08-06T10:34:56;4.78;;;4.57;;
14030;SDS011;7090;49.436;8.490;2023-08-06T10:37:35;4.60;;;4.50;;
14030;SDS011;7090;49.436;8.490;2023-08-06T10:40:01;4.30;;;4.20;;
14030;SDS011;7090;49.436;8.490;2023-08-06T10:42:28;4.70;;;4.53;;
14030;SDS011;7090;49.436;8.490;2023-08-06T10:47:43;4.10;;;4.00;;
14030;SDS011;7090;49.436;8.490;2023-08-06T10:50:16;4.70;;;4.60;;
14030;SDS011;7090;49.436;8.490;2023-08-06T10:52:46;5.20;;;5.00;;
14030;SDS011;7090;49.436;8.490;2023-08-06T10:55:12;5.10;;;4.90;;
14030;SDS011;7090;49.436;8.490;2023-08-06T10:57:39;5.85;;;5.55;;
14030;SDS011;7090;49.436;8.490;2023-08-06T11:00:05;5.18;;;4.97;;
14030;SDS011;7090;49.436;8.490;2023-08-06T11:02:33;5.40;;;5.20;;
14030;SDS011;7090;49.436;8.490;2023-08-06T11:05:04;5.57;;;5.38;;
14030;SDS011;7090;49.436;8.490;2023-08-06T11:07:30;5.70;;;5.50;;
14030;SDS011;7090;49.436;8.490;2023-08-06T11:10:02;6.10;;;5.90;;
14030;SDS011;7090;49.436;8.490;2023-08-06T11:12:33;6.45;;;6.15;;
14030;SDS011;7090;49.436;8.490;2023-08-06T11:14:59;5.90;;;5.70;;
14030;SDS011;7090;49.436;8.490;2023-08-06T11:17:29;6.00;;;5.78;;
14030;SDS011;7090;49.436;8.490;2023-08-06T11:19:55;6.45;;;6.25;;
14030;SDS011;7090;49.436;8.490;2023-08-06T11:22:21;6.05;;;5.85;;
14030;SDS011;7090;49.436;8.490;2023-08-06T11:24:47;5.60;;;5.40;;
14030;SDS011;7090;49.436;8.490;2023-08-06T11:27:14;6.05;;;5.75;;
14030;SDS011;7090;49.436;8.490;2023-08-06T11:29:40;5.93;;;5.65;;
14030;SDS011;7090;49.436;8.490;2023-08-06T11:32:07;5.82;;;5.63;;
14030;SDS011;7090;49.436;8.490;2023-08-06T11:34:34;6.00;;;5.70;;
14030;SDS011;7090;49.436;8.490;2023-08-06T11:37:00;6.40;;;6.20;;
14030;SDS011;7090;49.436;8.490;2023-08-06T11:39:27;6.20;;;5.90;;
14030;SDS011;7090;49.436;8.490;2023-08-06T11:41:53;6.20;;;5.90;;
14030;SDS011;7090;49.436;8.490;2023-08-06T11:44:19;5.78;;;5.57;;
14030;SDS011;7090;49.436;8.490;2023-08-06T11:46:51;5.50;;;5.30;;
14030;SDS011;7090;49.436;8.490;2023-08-06T11:49:20;6.00;;;5.80;;
14030;SDS011;7090;49.436;8.490;2023-08-06T11:52:07;5.82;;;5.63;;
14030;SDS011;7090;49.436;8.490;2023-08-06T11:54:41;7.05;;;5.80;;
14030;SDS011;7090;49.436;8.490;2023-08-06T11:57:07;5.60;;;5.40;;
14030;SDS011;7090;49.436;8.490;2023-08-06T11:59:33;6.05;;;5.57;;
14030;SDS011;7090;49.436;8.490;2023-08-06T12:02:03;6.07;;;5.80;;
14030;SDS011;7090;49.436;8.490;2023-08-06T12:04:56;5.70;;;5.50;;
14030;SDS011;7090;49.436;8.490;2023-08-06T12:07:30;5.35;;;5.15;;
14030;SDS011;7090;49.436;8.490;2023-08-06T12:09:57;5.70;;;5.40;;
14030;SDS011;7090;49.436;8.490;2023-08-06T12:12:23;5.72;;;5.53;;
14030;SDS011;7090;49.436;8.490;2023-08-06T12:14:49;5.72;;;5.43;;
14030;SDS011;7090;49.436;8.490;2023-08-06T12:17:15;5.93;;;5.68;;
14030;SDS011;7090;49.436;8.490;2023-08-06T12:19:40;5.82;;;5.63;;
14030;SDS011;7090;49.436;8.490;2023-08-06T12:22:06;6.15;;;5.90;;
14030;SDS011;7090;49.436;8.490;2023-08-06T12:24:31;5.90;;;5.70;;
14030;SDS011;7090;49.436;8.490;2023-08-06T12:26:57;5.78;;;5.55;;
14030;SDS011;7090;49.436;8.490;2023-08-06T12:29:23;5.85;;;5.65;;
14030;SDS011;7090;49.436;8.490;2023-08-06T12:31:50;6.00;;;5.80;;
14030;SDS011;7090;49.436;8.490;2023-08-06T12:34:15;6.10;;;5.80;;
14030;SDS011;7090;49.436;8.490;2023-08-06T12:36:41;5.88;;;5.65;;
14030;SDS011;7090;49.436;8.490;2023-08-06T12:39:07;5.68;;;5.47;;
14030;SDS011;7090;49.436;8.490;2023-08-06T12:41:32;5.95;;;5.68;;
14030;SDS011;7090;49.436;8.490;2023-08-06T12:43:58;6.20;;;5.90;;
14030;SDS011;7090;49.436;8.490;2023-08-06T12:46:23;6.22;;;5.82;;
14030;SDS011;7090;49.436;8.490;2023-08-06T12:48:49;5.75;;;5.55;;
14030;SDS011;7090;49.436;8.490;2023-08-06T12:51:14;5.53;;;5.32;;
14030;SDS011;7090;49.436;8.490;2023-08-06T12:53:40;6.00;;;5.70;;
14030;SDS011;7090;49.436;8.490;2023-08-06T12:56:05;5.95;;;5.75;;
14030;SDS011;7090;49.436;8.490;2023-08-06T12:58:31;6.00;;;5.80;;
14030;SDS011;7090;49.436;8.490;2023-08-06T13:00:56;6.18;;;5.88;;
14030;SDS011;7090;49.436;8.490;2023-08-06T13:03:22;5.85;;;5.63;;
14030;SDS011;7090;49.436;8.490;2023-08-06T13:05:48;6.10;;;5.90;;
14030;SDS011;7090;49.436;8.490;2023-08-06T13:08:13;5.80;;;5.60;;
14030;SDS011;7090;49.436;8.490;2023-08-06T13:10:39;5.70;;;5.20;;
14030;SDS011;7090;49.436;8.490;2023-08-06T13:13:05;5.50;;;5.30;;
14030;SDS011;7090;49.436;8.490;2023-08-06T13:15:30;5.93;;;5.72;;
14030;SDS011;7090;49.436;8.490;2023-08-06T13:17:56;5.93;;;5.72;;
14030;SDS011;7090;49.436;8.490;2023-08-06T13:20:21;5.70;;;5.50;;
14030;SDS011;7090;49.436;8.490;2023-08-06T13:22:47;5.57;;;5.38;;
14030;SDS011;7090;49.436;8.490;2023-08-06T13:25:15;5.60;;;5.40;;
14030;SDS011;7090;49.436;8.490;2023-08-06T13:27:42;5.95;;;5.75;;
14030;SDS011;7090;49.436;8.490;2023-08-06T13:30:09;6.35;;;5.93;;
14030;SDS011;7090;49.436;8.490;2023-08-06T13:32:35;5.80;;;5.60;;
14030;SDS011;7090;49.436;8.490;2023-08-06T13:35:02;5.70;;;5.50;;
14030;SDS011;7090;49.436;8.490;2023-08-06T13:37:30;6.00;;;5.70;;
14030;SDS011;7090;49.436;8.490;2023-08-06T13:39:56;5.80;;;5.55;;
14030;SDS011;7090;49.436;8.490;2023-08-06T13:42:22;6.18;;;5.78;;
14030;SDS011;7090;49.436;8.490;2023-08-06T13:44:47;5.75;;;5.53;;
14030;SDS011;7090;49.436;8.490;2023-08-06T13:47:13;5.65;;;5.45;;
14030;SDS011;7090;49.436;8.490;2023-08-06T13:49:39;5.82;;;5.63;;
14030;SDS011;7090;49.436;8.490;2023-08-06T13:52:04;5.75;;;5.55;;
14030;SDS011;7090;49.436;8.490;2023-08-06T13:54:30;5.85;;;5.65;;
14030;SDS011;7090;49.436;8.490;2023-08-06T13:56:55;5.60;;;5.40;;
14030;SDS011;7090;49.436;8.490;2023-08-06T13:59:21;6.18;;;5.97;;
14030;SDS011;7090;49.436;8.490;2023-08-06T14:01:49;6.18;;;5.97;;
14030;SDS011;7090;49.436;8.490;2023-08-06T14:04:15;6.60;;;6.40;;
14030;SDS011;7090;49.436;8.490;2023-08-06T14:06:40;7.50;;;7.20;;
14030;SDS011;7090;49.436;8.490;2023-08-06T14:09:06;8.57;;;8.18;;
14030;SDS011;7090;49.436;8.490;2023-08-06T14:11:32;8.70;;;8.30;;
14030;SDS011;7090;49.436;8.490;2023-08-06T14:13:58;8.55;;;8.02;;
14030;SDS011;7090;49.436;8.490;2023-08-06T14:16:25;8.05;;;7.75;;
14030;SDS011;7090;49.436;8.490;2023-08-06T14:18:50;7.45;;;7.15;;
14030;SDS011;7090;49.436;8.490;2023-08-06T14:21:16;7.53;;;7.23;;
14030;SDS011;7090;49.436;8.490;2023-08-06T14:23:41;7.30;;;7.00;;
14030;SDS011;7090;49.436;8.490;2023-08-06T14:26:07;6.70;;;6.50;;
14030;SDS011;7090;49.436;8.490;2023-08-06T14:28:35;6.10;;;5.90;;
14030;SDS011;7090;49.436;8.490;2023-08-06T14:31:01;6.25;;;6.05;;
14030;SDS011;7090;49.436;8.490;2023-08-06T14:33:27;5.80;;;5.60;;
14030;SDS011;7090;49.436;8.490;2023-08-06T14:35:52;6.32;;;6.05;;
14030;SDS011;7090;49.436;8.490;2023-08-06T14:38:18;6.18;;;5.97;;
14030;SDS011;7090;49.436;8.490;2023-08-06T14:40:43;5.90;;;5.70;;
14030;SDS011;7090;49.436;8.490;2023-08-06T14:43:09;6.15;;;5.93;;
14030;SDS011;7090;49.436;8.490;2023-08-06T14:45:41;6.07;;;5.88;;
14030;SDS011;7090;49.436;8.490;2023-08-06T14:48:06;6.00;;;5.80;;
14030;SDS011;7090;49.436;8.490;2023-08-06T14:50:32;6.25;;;5.90;;
14030;SDS011;7090;49.436;8.490;2023-08-06T14:52:57;6.00;;;5.80;;
14030;SDS011;7090;49.436;8.490;2023-08-06T14:55:27;5.93;;;5.72;;
14030;SDS011;7090;49.436;8.490;2023-08-06T14:57:53;5.57;;;5.38;;
14030;SDS011;7090;49.436;8.490;2023-08-06T15:00:19;5.32;;;5.10;;
14030;SDS011;7090;49.436;8.490;2023-08-06T15:02:45;5.80;;;5.50;;
14030;SDS011;7090;49.436;8.490;2023-08-06T15:05:11;5.30;;;5.10;;
14030;SDS011;7090;49.436;8.490;2023-08-06T15:07:36;5.13;;;4.93;;
14030;SDS011;7090;49.436;8.490;2023-08-06T15:10:03;13.18;;;12.68;;
14030;SDS011;7090;49.436;8.490;2023-08-06T15:12:30;12.18;;;11.68;;